^^

Nearby METAR Reports

METAR (Meteorological Aerodrome Report) are Airport generated local weather condition reports for use, predominantly by pilots, these reports are also used as part of compliment of data sets required for Chatteris Weathers prediction software - WxSim.

EGUN - Mildenhall Raf, United Kingdom
Distance from station: ESE 19mi, 31km
Updated: 17/01/2019 11:56
Clear
Clear
 Wind from NW
Wind: NW 15 mph , 24 km/h, Gust: 29 mph , 46 km/h
Temperature: 3°C
Wind Chill: -2°C
Dew Point: 0°C
Humidity: 81%
Barometer: 1009.8 hPa
Clouds: Clear
Visibility: 6 miles , 10 km
2019/01/17 11:56 EGUN 171156Z 31013G25KT 9999 CLR 03/00 A2982 RMK AO2A SLP102 WND DATA ESTMD 60000 70010 T00341002 10034 20009 52024 $
EGSC - Cambridge, United Kingdom
Distance from station: SSE 20mi, 32km
Updated: 17/01/2019 12:20
Few Clouds
Few Clouds
 Wind from NW
Wind: NW 16 mph , 26 km/h
Temperature: 4°C
Wind Chill: -1°C
Dew Point: -4°C
Humidity: 56%
Barometer: 1011 hPa
Clouds: Few Clouds
Visibility: 6 miles , 10 km
Cloud details: Few Clouds 671 m
2019/01/17 12:20 EGSC 171220Z 31014KT 9999 FEW022 04/M04 Q1011
 
EGUL - Lakenheath Raf, United Kingdom
Distance from station: E 22mi, 36km
Updated: 17/01/2019 12:29
Few Clouds
Few Clouds
 Wind from NW
Wind: NW 16 mph , 26 km/h, Gust: 25 mph , 41 km/h
Temperature: 4°C
Wind Chill: -1°C
Dew Point: -3°C
Humidity: 61%
Barometer: 1009.8 hPa
Clouds: Few Clouds
Visibility: 6 miles , 10 km
Cloud details: Few Clouds 1128 m
2019/01/17 12:29 EGUL 171229Z 31014G22KT 9999 FEW037 04/M03 A2982 RMK AO2A DZB25 SLP102 $
EGXT - Wittering Raf, United Kingdom
Distance from station: WNW 24mi, 38km
Updated: 17/01/2019 11:50
Clear
Clear
 Wind from NW
Wind: NW 18 mph , 30 km/h, Gust: 30 mph , 48 km/h
Temperature: 3°C
Wind Chill: -3°C
Dew Point: -4°C
Humidity: 60%
Barometer: 1010 hPa
Summary: Clear
Visibility: greater than 7 miles , 10 km
2019/01/17 11:50 EGXT 171150Z 31016G26KT CAVOK 03/M04 Q1010 BLU
 
EGYH - Holbeach (aut), United Kingdom
Distance from station: N 27mi, 44km
Updated: 17/01/2019 10:50
NOT Current
Few Clouds
Few Clouds
 Wind from NW
Wind: NW 22 mph , 35 km/h
Temperature: 2°C
Wind Chill: -4°C
Dew Point: -3°C
Humidity: 70%
Barometer: 1009 hPa
Clouds: Few Clouds
Visibility: 6 miles , 10 km
Cloud details: Few Clouds 762 m
2019/01/17 10:50 EGYH 171050Z 32019KT 9999 FEW025TCU 02/M03 Q1009 BLU
EGSS - Stansted Airport, United Kingdom
Distance from station: SE 11mi, 18km
Updated: 17/01/2019 12:20
Clear
Clear
 Wind from NW
Wind: NW 15 mph , 24 km/h
Temperature: 3°C
Wind Chill: -2°C
Dew Point: -3°C
Humidity: 65%
Barometer: 1011 hPa
Clouds: Clear
Visibility: 6 miles , 10 km
2019/01/17 12:20 EGSS 171220Z AUTO 31013KT 9999 NCD 03/M03 Q1011
 
EGGW - Luton Airport, United Kingdom
Distance from station: WSW 19mi, 31km
Updated: 17/01/2019 12:20
Clear
Clear
 Wind from NW
Wind: NW 21 mph , 33 km/h
Temperature: 3°C
Wind Chill: -3°C
Dew Point: -3°C
Humidity: 65%
Barometer: 1012 hPa
Clouds: Clear
Visibility: 6 miles , 10 km
2019/01/17 12:20 EGGW 171220Z AUTO 32018KT 9999 NCD 03/M03 Q1012
EGLL - London/Heathrow, United Kingdom
Distance from station: SSW 41mi, 66km
Updated: 17/01/2019 12:20
Clear
Clear
 Wind from NW
Wind: NW 10 mph , 17 km/h
Temperature: 4°C
Wind Chill: 0°C
Dew Point: -3°C
Humidity: 61%
Barometer: 1013 hPa
Clouds: Clear
Visibility: 6 miles , 10 km
2019/01/17 12:20 EGLL 171220Z AUTO 32009KT 9999 NCD 04/M03 Q1013 NOSIG
 
EGKK - London/Gatwick A, United Kingdom
Distance from station: S 60mi, 97km
Updated: 17/01/2019 12:20
Few Clouds
Few Clouds
 Wind from NW
Wind: NW 16 mph , 26 km/h
Temperature: 4°C
Wind Chill: -1°C
Dew Point: -2°C
Humidity: 65%
Barometer: 1013 hPa
Clouds: Few Clouds
Visibility: 6 miles , 10 km
Cloud details: Few Clouds 914 m
2019/01/17 12:20 EGKK 171220Z 31014KT 9999 FEW030 04/M02 Q1013
EGUY - Wyton Raf, United Kingdom
Distance from station: SW 11mi, 18km
Updated: 04/10/2015 09:50
NOT Current
Haze, Clear
Haze, Clear
 Wind from SSE
Wind: SSE 2 mph , 4 km/h
Temperature: 11°C
Dew Point: 7°C
Humidity: 77%
Barometer: 1014 hPa
Summary: Haze
Clouds: Clear
Visibility: 4 miles , 6 km
2015/10/04 08:50 EGUY 040850Z 15002KT 6000 HZ SKC 11/07 Q1014 WHT

Met Office METAR data link, decoding METAR data code.